sensor_id;sensor_type;location;lat;lon;timestamp;P1;durP1;ratioP1;P2;durP2;ratioP2
10491;SDS011;5293;51.464;-2.566;2023-06-22T00:02:16;7.50;;;5.10;;
10491;SDS011;5293;51.464;-2.566;2023-06-22T00:04:42;7.90;;;4.80;;
10491;SDS011;5293;51.464;-2.566;2023-06-22T00:07:08;7.77;;;4.87;;
10491;SDS011;5293;51.464;-2.566;2023-06-22T00:09:34;7.57;;;5.03;;
10491;SDS011;5293;51.464;-2.566;2023-06-22T00:12:00;7.33;;;5.17;;
10491;SDS011;5293;51.464;-2.566;2023-06-22T00:14:26;7.67;;;5.00;;
10491;SDS011;5293;51.464;-2.566;2023-06-22T00:16:52;6.07;;;4.63;;
10491;SDS011;5293;51.464;-2.566;2023-06-22T00:19:22;7.80;;;4.77;;
10491;SDS011;5293;51.464;-2.566;2023-06-22T00:21:48;9.40;;;5.57;;
10491;SDS011;5293;51.464;-2.566;2023-06-22T00:24:18;8.37;;;5.50;;
10491;SDS011;5293;51.464;-2.566;2023-06-22T00:26:44;11.47;;;5.43;;
10491;SDS011;5293;51.464;-2.566;2023-06-22T00:29:10;6.63;;;5.20;;
10491;SDS011;5293;51.464;-2.566;2023-06-22T00:31:36;10.97;;;5.63;;
10491;SDS011;5293;51.464;-2.566;2023-06-22T00:34:02;9.03;;;5.83;;
10491;SDS011;5293;51.464;-2.566;2023-06-22T00:36:27;8.50;;;5.70;;
10491;SDS011;5293;51.464;-2.566;2023-06-22T00:38:53;8.47;;;6.00;;
10491;SDS011;5293;51.464;-2.566;2023-06-22T00:41:19;8.17;;;6.00;;
10491;SDS011;5293;51.464;-2.566;2023-06-22T00:43:44;8.47;;;5.93;;
10491;SDS011;5293;51.464;-2.566;2023-06-22T00:46:10;7.37;;;5.20;;
10491;SDS011;5293;51.464;-2.566;2023-06-22T00:48:36;6.63;;;5.77;;
10491;SDS011;5293;51.464;-2.566;2023-06-22T00:51:03;9.00;;;6.00;;
10491;SDS011;5293;51.464;-2.566;2023-06-22T00:53:28;7.80;;;6.27;;
10491;SDS011;5293;51.464;-2.566;2023-06-22T00:55:55;9.17;;;5.23;;
10491;SDS011;5293;51.464;-2.566;2023-06-22T00:58:21;8.83;;;6.17;;
10491;SDS011;5293;51.464;-2.566;2023-06-22T01:00:47;6.87;;;6.17;;
10491;SDS011;5293;51.464;-2.566;2023-06-22T01:03:13;11.03;;;6.43;;
10491;SDS011;5293;51.464;-2.566;2023-06-22T01:05:39;9.23;;;6.70;;
10491;SDS011;5293;51.464;-2.566;2023-06-22T01:10:34;8.77;;;7.33;;
10491;SDS011;5293;51.464;-2.566;2023-06-22T01:13:11;8.57;;;6.80;;
10491;SDS011;5293;51.464;-2.566;2023-06-22T01:16:02;9.23;;;7.17;;
10491;SDS011;5293;51.464;-2.566;2023-06-22T01:18:32;10.30;;;7.23;;
10491;SDS011;5293;51.464;-2.566;2023-06-22T01:21:02;10.67;;;7.47;;
10491;SDS011;5293;51.464;-2.566;2023-06-22T01:26:06;11.17;;;7.93;;
10491;SDS011;5293;51.464;-2.566;2023-06-22T01:28:46;10.23;;;7.17;;
10491;SDS011;5293;51.464;-2.566;2023-06-22T01:31:16;13.53;;;7.57;;
10491;SDS011;5293;51.464;-2.566;2023-06-22T01:33:45;10.20;;;7.40;;
10491;SDS011;5293;51.464;-2.566;2023-06-22T01:36:13;11.33;;;7.93;;
10491;SDS011;5293;51.464;-2.566;2023-06-22T01:38:41;11.50;;;7.90;;
10491;SDS011;5293;51.464;-2.566;2023-06-22T01:41:08;18.57;;;8.63;;
10491;SDS011;5293;51.464;-2.566;2023-06-22T01:43:34;16.23;;;9.03;;
10491;SDS011;5293;51.464;-2.566;2023-06-22T01:46:01;16.30;;;8.50;;
10491;SDS011;5293;51.464;-2.566;2023-06-22T01:48:28;14.63;;;8.87;;
10491;SDS011;5293;51.464;-2.566;2023-06-22T01:50:54;14.10;;;9.03;;
10491;SDS011;5293;51.464;-2.566;2023-06-22T01:53:21;14.87;;;9.00;;
10491;SDS011;5293;51.464;-2.566;2023-06-22T01:55:47;13.77;;;9.27;;
10491;SDS011;5293;51.464;-2.566;2023-06-22T01:58:13;13.23;;;8.27;;
10491;SDS011;5293;51.464;-2.566;2023-06-22T02:00:39;13.50;;;8.10;;
10491;SDS011;5293;51.464;-2.566;2023-06-22T02:03:13;14.90;;;8.40;;
10491;SDS011;5293;51.464;-2.566;2023-06-22T02:05:50;13.13;;;8.90;;
10491;SDS011;5293;51.464;-2.566;2023-06-22T02:08:20;15.63;;;9.47;;
10491;SDS011;5293;51.464;-2.566;2023-06-22T02:10:49;12.37;;;9.03;;
10491;SDS011;5293;51.464;-2.566;2023-06-22T02:13:16;14.10;;;8.83;;
10491;SDS011;5293;51.464;-2.566;2023-06-22T02:15:43;13.87;;;9.03;;
10491;SDS011;5293;51.464;-2.566;2023-06-22T02:18:09;15.53;;;9.53;;
10491;SDS011;5293;51.464;-2.566;2023-06-22T02:20:38;13.60;;;9.37;;
10491;SDS011;5293;51.464;-2.566;2023-06-22T02:23:04;13.17;;;8.93;;
10491;SDS011;5293;51.464;-2.566;2023-06-22T02:25:32;12.93;;;9.10;;
10491;SDS011;5293;51.464;-2.566;2023-06-22T02:27:59;13.37;;;8.83;;
10491;SDS011;5293;51.464;-2.566;2023-06-22T02:30:25;12.80;;;8.63;;
10491;SDS011;5293;51.464;-2.566;2023-06-22T02:32:51;14.70;;;9.20;;
10491;SDS011;5293;51.464;-2.566;2023-06-22T02:35:23;11.87;;;8.27;;
10491;SDS011;5293;51.464;-2.566;2023-06-22T02:38:00;11.70;;;8.13;;
10491;SDS011;5293;51.464;-2.566;2023-06-22T02:40:27;11.63;;;8.70;;
10491;SDS011;5293;51.464;-2.566;2023-06-22T02:42:54;11.47;;;8.40;;
10491;SDS011;5293;51.464;-2.566;2023-06-22T02:45:20;14.27;;;8.40;;
10491;SDS011;5293;51.464;-2.566;2023-06-22T02:47:46;12.60;;;8.27;;
10491;SDS011;5293;51.464;-2.566;2023-06-22T02:50:13;13.90;;;8.77;;
10491;SDS011;5293;51.464;-2.566;2023-06-22T02:52:39;11.53;;;7.93;;
10491;SDS011;5293;51.464;-2.566;2023-06-22T02:55:05;10.37;;;7.70;;
10491;SDS011;5293;51.464;-2.566;2023-06-22T02:57:32;11.53;;;8.13;;
10491;SDS011;5293;51.464;-2.566;2023-06-22T02:59:59;11.60;;;7.90;;
10491;SDS011;5293;51.464;-2.566;2023-06-22T03:02:25;13.63;;;8.17;;
10491;SDS011;5293;51.464;-2.566;2023-06-22T03:04:51;12.10;;;7.73;;
10491;SDS011;5293;51.464;-2.566;2023-06-22T03:07:18;14.43;;;8.30;;
10491;SDS011;5293;51.464;-2.566;2023-06-22T03:09:47;10.37;;;7.47;;
10491;SDS011;5293;51.464;-2.566;2023-06-22T03:12:13;12.10;;;7.83;;
10491;SDS011;5293;51.464;-2.566;2023-06-22T03:14:38;11.73;;;7.67;;
10491;SDS011;5293;51.464;-2.566;2023-06-22T03:17:04;11.57;;;7.33;;
10491;SDS011;5293;51.464;-2.566;2023-06-22T03:19:31;11.23;;;7.70;;
10491;SDS011;5293;51.464;-2.566;2023-06-22T03:21:59;13.63;;;8.07;;
10491;SDS011;5293;51.464;-2.566;2023-06-22T03:24:25;12.67;;;7.73;;
10491;SDS011;5293;51.464;-2.566;2023-06-22T03:26:53;11.93;;;8.20;;
10491;SDS011;5293;51.464;-2.566;2023-06-22T03:29:19;12.00;;;7.93;;
10491;SDS011;5293;51.464;-2.566;2023-06-22T03:31:45;14.00;;;7.57;;
10491;SDS011;5293;51.464;-2.566;2023-06-22T03:34:11;12.47;;;7.50;;
10491;SDS011;5293;51.464;-2.566;2023-06-22T03:36:36;10.90;;;7.40;;
10491;SDS011;5293;51.464;-2.566;2023-06-22T03:39:02;11.20;;;7.90;;
10491;SDS011;5293;51.464;-2.566;2023-06-22T03:41:28;9.27;;;6.93;;
10491;SDS011;5293;51.464;-2.566;2023-06-22T03:43:53;11.30;;;7.93;;
10491;SDS011;5293;51.464;-2.566;2023-06-22T03:46:19;11.67;;;7.33;;
10491;SDS011;5293;51.464;-2.566;2023-06-22T03:48:45;10.53;;;7.50;;
10491;SDS011;5293;51.464;-2.566;2023-06-22T03:51:11;11.47;;;7.03;;
10491;SDS011;5293;51.464;-2.566;2023-06-22T03:53:36;11.73;;;7.50;;
10491;SDS011;5293;51.464;-2.566;2023-06-22T03:56:02;12.30;;;7.67;;
10491;SDS011;5293;51.464;-2.566;2023-06-22T03:58:28;8.83;;;7.40;;
10491;SDS011;5293;51.464;-2.566;2023-06-22T04:00:57;12.67;;;7.43;;
10491;SDS011;5293;51.464;-2.566;2023-06-22T04:03:25;10.23;;;7.37;;
10491;SDS011;5293;51.464;-2.566;2023-06-22T04:05:50;12.03;;;8.00;;
10491;SDS011;5293;51.464;-2.566;2023-06-22T04:08:16;9.77;;;7.83;;
10491;SDS011;5293;51.464;-2.566;2023-06-22T04:10:42;10.80;;;7.73;;
10491;SDS011;5293;51.464;-2.566;2023-06-22T04:13:07;10.37;;;7.30;;
10491;SDS011;5293;51.464;-2.566;2023-06-22T04:15:33;13.27;;;7.73;;
10491;SDS011;5293;51.464;-2.566;2023-06-22T04:17:59;10.40;;;7.53;;
10491;SDS011;5293;51.464;-2.566;2023-06-22T04:20:25;10.73;;;7.13;;
10491;SDS011;5293;51.464;-2.566;2023-06-22T04:22:52;8.80;;;7.57;;
10491;SDS011;5293;51.464;-2.566;2023-06-22T04:25:18;11.77;;;8.03;;
10491;SDS011;5293;51.464;-2.566;2023-06-22T04:27:45;13.20;;;8.53;;
10491;SDS011;5293;51.464;-2.566;2023-06-22T04:30:11;11.90;;;8.27;;
10491;SDS011;5293;51.464;-2.566;2023-06-22T04:32:37;11.43;;;8.07;;
10491;SDS011;5293;51.464;-2.566;2023-06-22T04:35:03;9.83;;;7.73;;
10491;SDS011;5293;51.464;-2.566;2023-06-22T04:37:32;11.30;;;8.30;;
10491;SDS011;5293;51.464;-2.566;2023-06-22T04:39:58;9.60;;;8.00;;
10491;SDS011;5293;51.464;-2.566;2023-06-22T04:42:27;12.00;;;7.80;;
10491;SDS011;5293;51.464;-2.566;2023-06-22T04:44:53;11.83;;;8.20;;
10491;SDS011;5293;51.464;-2.566;2023-06-22T04:47:19;10.70;;;7.97;;
10491;SDS011;5293;51.464;-2.566;2023-06-22T04:49:44;9.83;;;7.53;;
10491;SDS011;5293;51.464;-2.566;2023-06-22T04:52:11;13.33;;;8.67;;
10491;SDS011;5293;51.464;-2.566;2023-06-22T04:54:38;11.50;;;8.20;;
10491;SDS011;5293;51.464;-2.566;2023-06-22T04:57:06;10.97;;;7.70;;
10491;SDS011;5293;51.464;-2.566;2023-06-22T04:59:36;9.00;;;7.20;;
10491;SDS011;5293;51.464;-2.566;2023-06-22T05:02:04;11.53;;;7.90;;
10491;SDS011;5293;51.464;-2.566;2023-06-22T05:04:30;8.30;;;7.23;;
10491;SDS011;5293;51.464;-2.566;2023-06-22T05:06:57;8.47;;;7.30;;
10491;SDS011;5293;51.464;-2.566;2023-06-22T05:09:23;10.03;;;6.90;;
10491;SDS011;5293;51.464;-2.566;2023-06-22T05:11:50;12.07;;;7.13;;
10491;SDS011;5293;51.464;-2.566;2023-06-22T05:14:16;9.17;;;7.20;;
10491;SDS011;5293;51.464;-2.566;2023-06-22T05:16:42;10.47;;;7.27;;
10491;SDS011;5293;51.464;-2.566;2023-06-22T05:19:08;8.97;;;7.13;;
10491;SDS011;5293;51.464;-2.566;2023-06-22T05:21:34;12.07;;;7.03;;
10491;SDS011;5293;51.464;-2.566;2023-06-22T05:24:00;10.17;;;6.87;;
10491;SDS011;5293;51.464;-2.566;2023-06-22T05:26:27;14.40;;;7.53;;
10491;SDS011;5293;51.464;-2.566;2023-06-22T05:28:54;13.83;;;7.27;;
10491;SDS011;5293;51.464;-2.566;2023-06-22T05:31:20;9.97;;;7.10;;
10491;SDS011;5293;51.464;-2.566;2023-06-22T05:33:46;9.83;;;7.03;;
10491;SDS011;5293;51.464;-2.566;2023-06-22T05:36:14;8.70;;;7.13;;
10491;SDS011;5293;51.464;-2.566;2023-06-22T05:38:40;8.57;;;6.53;;
10491;SDS011;5293;51.464;-2.566;2023-06-22T05:41:06;7.97;;;6.87;;
10491;SDS011;5293;51.464;-2.566;2023-06-22T05:43:33;10.77;;;6.73;;
10491;SDS011;5293;51.464;-2.566;2023-06-22T05:45:59;9.37;;;6.57;;
10491;SDS011;5293;51.464;-2.566;2023-06-22T05:48:26;10.83;;;6.60;;
10491;SDS011;5293;51.464;-2.566;2023-06-22T05:50:52;10.40;;;6.30;;
10491;SDS011;5293;51.464;-2.566;2023-06-22T05:53:18;9.60;;;6.57;;
10491;SDS011;5293;51.464;-2.566;2023-06-22T05:55:44;8.10;;;6.57;;
10491;SDS011;5293;51.464;-2.566;2023-06-22T05:58:10;7.37;;;6.60;;
10491;SDS011;5293;51.464;-2.566;2023-06-22T06:00:35;7.73;;;6.53;;
10491;SDS011;5293;51.464;-2.566;2023-06-22T06:03:01;8.03;;;6.00;;
10491;SDS011;5293;51.464;-2.566;2023-06-22T06:05:28;8.23;;;6.50;;
10491;SDS011;5293;51.464;-2.566;2023-06-22T06:07:57;9.70;;;6.10;;
10491;SDS011;5293;51.464;-2.566;2023-06-22T06:10:24;8.43;;;5.40;;
10491;SDS011;5293;51.464;-2.566;2023-06-22T06:12:50;7.37;;;4.70;;
10491;SDS011;5293;51.464;-2.566;2023-06-22T06:15:16;5.17;;;4.60;;
10491;SDS011;5293;51.464;-2.566;2023-06-22T06:17:49;5.40;;;4.87;;
10491;SDS011;5293;51.464;-2.566;2023-06-22T06:20:17;6.40;;;4.40;;
10491;SDS011;5293;51.464;-2.566;2023-06-22T06:22:44;7.20;;;5.40;;
10491;SDS011;5293;51.464;-2.566;2023-06-22T06:25:10;5.53;;;4.60;;
10491;SDS011;5293;51.464;-2.566;2023-06-22T06:27:40;4.97;;;4.47;;
10491;SDS011;5293;51.464;-2.566;2023-06-22T06:30:13;7.13;;;5.20;;
10491;SDS011;5293;51.464;-2.566;2023-06-22T06:32:40;5.63;;;4.60;;
10491;SDS011;5293;51.464;-2.566;2023-06-22T06:35:07;4.57;;;3.80;;
10491;SDS011;5293;51.464;-2.566;2023-06-22T06:37:38;5.73;;;4.77;;
10491;SDS011;5293;51.464;-2.566;2023-06-22T06:40:05;7.43;;;5.30;;
10491;SDS011;5293;51.464;-2.566;2023-06-22T06:42:39;6.73;;;4.70;;
10491;SDS011;5293;51.464;-2.566;2023-06-22T06:45:09;6.30;;;3.73;;
10491;SDS011;5293;51.464;-2.566;2023-06-22T06:47:37;5.37;;;4.50;;
10491;SDS011;5293;51.464;-2.566;2023-06-22T06:50:03;5.37;;;4.60;;
10491;SDS011;5293;51.464;-2.566;2023-06-22T06:52:29;7.10;;;5.10;;
10491;SDS011;5293;51.464;-2.566;2023-06-22T06:54:55;5.20;;;4.70;;
10491;SDS011;5293;51.464;-2.566;2023-06-22T06:57:21;4.70;;;4.20;;
10491;SDS011;5293;51.464;-2.566;2023-06-22T06:59:47;3.70;;;3.17;;
10491;SDS011;5293;51.464;-2.566;2023-06-22T07:02:14;3.93;;;3.10;;
10491;SDS011;5293;51.464;-2.566;2023-06-22T07:04:43;4.30;;;2.93;;
10491;SDS011;5293;51.464;-2.566;2023-06-22T07:07:09;3.97;;;3.40;;
10491;SDS011;5293;51.464;-2.566;2023-06-22T07:09:35;5.33;;;3.00;;
10491;SDS011;5293;51.464;-2.566;2023-06-22T07:12:00;4.70;;;2.93;;
10491;SDS011;5293;51.464;-2.566;2023-06-22T07:14:26;5.40;;;2.90;;
10491;SDS011;5293;51.464;-2.566;2023-06-22T07:16:52;4.10;;;2.67;;
10491;SDS011;5293;51.464;-2.566;2023-06-22T07:19:23;5.17;;;2.80;;
10491;SDS011;5293;51.464;-2.566;2023-06-22T07:21:50;3.03;;;2.50;;
10491;SDS011;5293;51.464;-2.566;2023-06-22T07:24:16;2.93;;;2.67;;
10491;SDS011;5293;51.464;-2.566;2023-06-22T07:26:42;3.57;;;2.77;;
10491;SDS011;5293;51.464;-2.566;2023-06-22T07:29:10;3.47;;;2.57;;
10491;SDS011;5293;51.464;-2.566;2023-06-22T07:31:37;5.60;;;2.80;;
10491;SDS011;5293;51.464;-2.566;2023-06-22T07:34:05;2.87;;;2.67;;
10491;SDS011;5293;51.464;-2.566;2023-06-22T07:36:30;2.90;;;2.60;;
10491;SDS011;5293;51.464;-2.566;2023-06-22T07:38:56;4.83;;;2.80;;
10491;SDS011;5293;51.464;-2.566;2023-06-22T07:41:22;4.77;;;2.90;;
10491;SDS011;5293;51.464;-2.566;2023-06-22T07:43:47;4.93;;;3.30;;
10491;SDS011;5293;51.464;-2.566;2023-06-22T07:46:13;3.57;;;3.17;;
10491;SDS011;5293;51.464;-2.566;2023-06-22T07:48:39;4.80;;;3.57;;
10491;SDS011;5293;51.464;-2.566;2023-06-22T07:51:06;4.70;;;3.33;;
10491;SDS011;5293;51.464;-2.566;2023-06-22T07:53:32;4.13;;;2.70;;
10491;SDS011;5293;51.464;-2.566;2023-06-22T07:55:58;4.20;;;3.10;;
10491;SDS011;5293;51.464;-2.566;2023-06-22T07:58:23;4.60;;;3.13;;
10491;SDS011;5293;51.464;-2.566;2023-06-22T08:00:49;6.30;;;2.80;;
10491;SDS011;5293;51.464;-2.566;2023-06-22T08:03:15;3.80;;;3.23;;
10491;SDS011;5293;51.464;-2.566;2023-06-22T08:05:41;3.67;;;3.37;;
10491;SDS011;5293;51.464;-2.566;2023-06-22T08:08:06;4.47;;;3.37;;
10491;SDS011;5293;51.464;-2.566;2023-06-22T08:10:32;3.30;;;2.87;;
10491;SDS011;5293;51.464;-2.566;2023-06-22T08:12:58;4.97;;;3.70;;
10491;SDS011;5293;51.464;-2.566;2023-06-22T08:15:23;6.40;;;3.53;;
10491;SDS011;5293;51.464;-2.566;2023-06-22T08:17:51;4.63;;;3.50;;
10491;SDS011;5293;51.464;-2.566;2023-06-22T08:20:17;4.53;;;3.50;;
10491;SDS011;5293;51.464;-2.566;2023-06-22T08:22:43;4.23;;;2.87;;
10491;SDS011;5293;51.464;-2.566;2023-06-22T08:25:09;3.77;;;3.30;;
10491;SDS011;5293;51.464;-2.566;2023-06-22T08:27:36;3.70;;;3.40;;
10491;SDS011;5293;51.464;-2.566;2023-06-22T08:30:02;7.87;;;3.67;;
10491;SDS011;5293;51.464;-2.566;2023-06-22T08:32:28;3.37;;;3.10;;
10491;SDS011;5293;51.464;-2.566;2023-06-22T08:34:54;4.13;;;3.73;;
10491;SDS011;5293;51.464;-2.566;2023-06-22T08:37:21;3.37;;;2.90;;
10491;SDS011;5293;51.464;-2.566;2023-06-22T08:39:50;4.43;;;3.40;;
10491;SDS011;5293;51.464;-2.566;2023-06-22T08:42:15;4.20;;;3.33;;
10491;SDS011;5293;51.464;-2.566;2023-06-22T08:44:41;3.83;;;3.03;;
10491;SDS011;5293;51.464;-2.566;2023-06-22T08:47:07;3.67;;;3.37;;
10491;SDS011;5293;51.464;-2.566;2023-06-22T08:49:32;4.20;;;3.57;;
10491;SDS011;5293;51.464;-2.566;2023-06-22T08:51:58;3.60;;;3.20;;
10491;SDS011;5293;51.464;-2.566;2023-06-22T08:54:24;5.73;;;4.00;;
10491;SDS011;5293;51.464;-2.566;2023-06-22T08:56:49;4.33;;;3.93;;
10491;SDS011;5293;51.464;-2.566;2023-06-22T08:59:15;5.80;;;5.07;;
10491;SDS011;5293;51.464;-2.566;2023-06-22T09:01:41;5.07;;;4.30;;
10491;SDS011;5293;51.464;-2.566;2023-06-22T09:04:10;4.97;;;4.20;;
10491;SDS011;5293;51.464;-2.566;2023-06-22T09:06:36;6.67;;;4.20;;
10491;SDS011;5293;51.464;-2.566;2023-06-22T09:09:06;4.83;;;3.60;;
10491;SDS011;5293;51.464;-2.566;2023-06-22T09:11:32;4.07;;;3.57;;
10491;SDS011;5293;51.464;-2.566;2023-06-22T09:13:57;3.97;;;3.23;;
10491;SDS011;5293;51.464;-2.566;2023-06-22T09:16:23;3.60;;;3.30;;
10491;SDS011;5293;51.464;-2.566;2023-06-22T09:18:50;3.87;;;2.97;;
10491;SDS011;5293;51.464;-2.566;2023-06-22T09:21:15;4.80;;;2.80;;
10491;SDS011;5293;51.464;-2.566;2023-06-22T09:23:41;3.70;;;2.70;;
10491;SDS011;5293;51.464;-2.566;2023-06-22T09:26:07;4.23;;;2.97;;
10491;SDS011;5293;51.464;-2.566;2023-06-22T09:28:33;4.37;;;3.10;;
10491;SDS011;5293;51.464;-2.566;2023-06-22T09:30:59;5.50;;;3.10;;
10491;SDS011;5293;51.464;-2.566;2023-06-22T09:33:25;3.33;;;3.03;;
10491;SDS011;5293;51.464;-2.566;2023-06-22T09:35:51;3.93;;;3.07;;
10491;SDS011;5293;51.464;-2.566;2023-06-22T09:38:17;3.40;;;3.10;;
10491;SDS011;5293;51.464;-2.566;2023-06-22T09:40:43;4.97;;;2.90;;
10491;SDS011;5293;51.464;-2.566;2023-06-22T09:43:08;3.20;;;2.83;;
10491;SDS011;5293;51.464;-2.566;2023-06-22T09:45:34;4.50;;;3.23;;
10491;SDS011;5293;51.464;-2.566;2023-06-22T09:48:00;3.90;;;2.67;;
10491;SDS011;5293;51.464;-2.566;2023-06-22T09:50:26;4.43;;;2.83;;
10491;SDS011;5293;51.464;-2.566;2023-06-22T09:52:51;3.53;;;2.70;;
10491;SDS011;5293;51.464;-2.566;2023-06-22T09:55:20;4.43;;;3.00;;
10491;SDS011;5293;51.464;-2.566;2023-06-22T09:57:46;5.40;;;2.60;;
10491;SDS011;5293;51.464;-2.566;2023-06-22T10:00:12;6.10;;;2.47;;
10491;SDS011;5293;51.464;-2.566;2023-06-22T10:02:40;4.87;;;2.30;;
10491;SDS011;5293;51.464;-2.566;2023-06-22T10:05:06;3.47;;;2.97;;
10491;SDS011;5293;51.464;-2.566;2023-06-22T10:07:32;3.83;;;2.37;;
10491;SDS011;5293;51.464;-2.566;2023-06-22T10:09:58;2.87;;;2.67;;
10491;SDS011;5293;51.464;-2.566;2023-06-22T10:12:25;4.07;;;2.70;;
10491;SDS011;5293;51.464;-2.566;2023-06-22T10:14:52;5.03;;;2.70;;
10491;SDS011;5293;51.464;-2.566;2023-06-22T10:17:18;3.63;;;2.40;;
10491;SDS011;5293;51.464;-2.566;2023-06-22T10:19:43;2.80;;;2.57;;
10491;SDS011;5293;51.464;-2.566;2023-06-22T10:22:09;3.87;;;2.77;;
10491;SDS011;5293;51.464;-2.566;2023-06-22T10:24:35;2.67;;;2.30;;
10491;SDS011;5293;51.464;-2.566;2023-06-22T10:27:00;7.30;;;3.17;;
10491;SDS011;5293;51.464;-2.566;2023-06-22T10:29:26;5.13;;;2.83;;
10491;SDS011;5293;51.464;-2.566;2023-06-22T10:31:52;3.37;;;2.73;;
10491;SDS011;5293;51.464;-2.566;2023-06-22T10:34:17;4.50;;;2.60;;
10491;SDS011;5293;51.464;-2.566;2023-06-22T10:36:43;5.10;;;3.00;;
10491;SDS011;5293;51.464;-2.566;2023-06-22T10:39:11;3.03;;;2.73;;
10491;SDS011;5293;51.464;-2.566;2023-06-22T10:41:37;3.67;;;2.80;;
10491;SDS011;5293;51.464;-2.566;2023-06-22T10:44:02;4.40;;;3.10;;
10491;SDS011;5293;51.464;-2.566;2023-06-22T10:46:28;5.27;;;2.90;;
10491;SDS011;5293;51.464;-2.566;2023-06-22T10:48:54;3.07;;;2.50;;
10491;SDS011;5293;51.464;-2.566;2023-06-22T10:51:21;3.10;;;2.60;;
10491;SDS011;5293;51.464;-2.566;2023-06-22T10:53:47;4.67;;;2.97;;
10491;SDS011;5293;51.464;-2.566;2023-06-22T10:56:13;4.63;;;2.70;;
10491;SDS011;5293;51.464;-2.566;2023-06-22T10:58:39;3.63;;;2.10;;
10491;SDS011;5293;51.464;-2.566;2023-06-22T11:01:04;2.83;;;2.50;;
10491;SDS011;5293;51.464;-2.566;2023-06-22T11:03:30;3.40;;;2.80;;
10491;SDS011;5293;51.464;-2.566;2023-06-22T11:05:56;2.37;;;2.00;;
10491;SDS011;5293;51.464;-2.566;2023-06-22T11:08:21;3.17;;;2.57;;
10491;SDS011;5293;51.464;-2.566;2023-06-22T11:10:47;2.87;;;2.37;;
10491;SDS011;5293;51.464;-2.566;2023-06-22T11:13:12;3.20;;;2.30;;
10491;SDS011;5293;51.464;-2.566;2023-06-22T11:15:38;2.43;;;2.23;;
10491;SDS011;5293;51.464;-2.566;2023-06-22T11:18:04;3.70;;;2.60;;
10491;SDS011;5293;51.464;-2.566;2023-06-22T11:20:32;3.00;;;2.63;;
10491;SDS011;5293;51.464;-2.566;2023-06-22T11:22:59;4.93;;;2.53;;
10491;SDS011;5293;51.464;-2.566;2023-06-22T11:25:25;2.57;;;2.37;;
10491;SDS011;5293;51.464;-2.566;2023-06-22T11:27:51;2.93;;;2.20;;
10491;SDS011;5293;51.464;-2.566;2023-06-22T11:30:18;4.67;;;2.57;;
10491;SDS011;5293;51.464;-2.566;2023-06-22T11:32:44;3.73;;;2.50;;
10491;SDS011;5293;51.464;-2.566;2023-06-22T11:35:10;2.87;;;2.50;;
10491;SDS011;5293;51.464;-2.566;2023-06-22T11:37:36;3.17;;;2.47;;
10491;SDS011;5293;51.464;-2.566;2023-06-22T11:40:01;4.80;;;2.67;;
10491;SDS011;5293;51.464;-2.566;2023-06-22T11:42:30;4.00;;;2.27;;
10491;SDS011;5293;51.464;-2.566;2023-06-22T11:44:56;2.97;;;2.50;;
10491;SDS011;5293;51.464;-2.566;2023-06-22T11:47:21;2.63;;;2.20;;
10491;SDS011;5293;51.464;-2.566;2023-06-22T11:49:47;4.33;;;2.20;;
10491;SDS011;5293;51.464;-2.566;2023-06-22T11:52:12;3.00;;;2.17;;
10491;SDS011;5293;51.464;-2.566;2023-06-22T11:54:38;4.27;;;2.00;;
10491;SDS011;5293;51.464;-2.566;2023-06-22T11:57:04;3.03;;;2.30;;
10491;SDS011;5293;51.464;-2.566;2023-06-22T11:59:29;5.00;;;2.60;;
10491;SDS011;5293;51.464;-2.566;2023-06-22T12:01:56;2.53;;;2.33;;
10491;SDS011;5293;51.464;-2.566;2023-06-22T12:04:23;4.07;;;2.00;;
10491;SDS011;5293;51.464;-2.566;2023-06-22T12:06:49;3.97;;;2.73;;
10491;SDS011;5293;51.464;-2.566;2023-06-22T12:09:14;6.10;;;4.00;;
10491;SDS011;5293;51.464;-2.566;2023-06-22T12:11:40;1.87;;;1.77;;
10491;SDS011;5293;51.464;-2.566;2023-06-22T12:14:06;3.87;;;2.23;;
10491;SDS011;5293;51.464;-2.566;2023-06-22T12:16:31;3.27;;;2.40;;
10491;SDS011;5293;51.464;-2.566;2023-06-22T12:18:57;5.27;;;2.60;;
10491;SDS011;5293;51.464;-2.566;2023-06-22T12:21:22;3.50;;;2.50;;
10491;SDS011;5293;51.464;-2.566;2023-06-22T12:23:48;5.17;;;2.53;;
10491;SDS011;5293;51.464;-2.566;2023-06-22T12:26:14;2.20;;;2.00;;
10491;SDS011;5293;51.464;-2.566;2023-06-22T12:28:39;2.40;;;2.20;;
10491;SDS011;5293;51.464;-2.566;2023-06-22T12:31:05;3.40;;;2.23;;
10491;SDS011;5293;51.464;-2.566;2023-06-22T12:33:31;2.80;;;2.10;;
10491;SDS011;5293;51.464;-2.566;2023-06-22T12:35:56;2.93;;;2.17;;
10491;SDS011;5293;51.464;-2.566;2023-06-22T12:38:22;4.23;;;2.63;;
10491;SDS011;5293;51.464;-2.566;2023-06-22T12:40:50;2.60;;;2.23;;
10491;SDS011;5293;51.464;-2.566;2023-06-22T12:43:16;4.80;;;2.17;;
10491;SDS011;5293;51.464;-2.566;2023-06-22T12:45:42;6.80;;;2.67;;
10491;SDS011;5293;51.464;-2.566;2023-06-22T12:48:07;2.70;;;2.50;;
10491;SDS011;5293;51.464;-2.566;2023-06-22T12:50:33;3.57;;;2.60;;
10491;SDS011;5293;51.464;-2.566;2023-06-22T12:52:59;3.97;;;2.70;;
10491;SDS011;5293;51.464;-2.566;2023-06-22T12:55:27;6.07;;;2.50;;
10491;SDS011;5293;51.464;-2.566;2023-06-22T12:57:52;2.60;;;2.20;;
10491;SDS011;5293;51.464;-2.566;2023-06-22T13:00:18;3.10;;;2.57;;
10491;SDS011;5293;51.464;-2.566;2023-06-22T13:02:44;6.37;;;3.07;;
10491;SDS011;5293;51.464;-2.566;2023-06-22T13:05:10;6.73;;;2.40;;
10491;SDS011;5293;51.464;-2.566;2023-06-22T13:07:36;4.07;;;2.80;;
10491;SDS011;5293;51.464;-2.566;2023-06-22T13:10:02;3.60;;;2.20;;
10491;SDS011;5293;51.464;-2.566;2023-06-22T13:12:28;3.53;;;2.17;;
10491;SDS011;5293;51.464;-2.566;2023-06-22T13:14:54;2.50;;;2.30;;
10491;SDS011;5293;51.464;-2.566;2023-06-22T13:17:20;3.77;;;2.70;;
10491;SDS011;5293;51.464;-2.566;2023-06-22T13:19:46;3.80;;;2.40;;
10491;SDS011;5293;51.464;-2.566;2023-06-22T13:22:30;3.27;;;2.30;;
10491;SDS011;5293;51.464;-2.566;2023-06-22T13:24:57;3.23;;;2.20;;
10491;SDS011;5293;51.464;-2.566;2023-06-22T13:27:24;3.87;;;2.73;;
10491;SDS011;5293;51.464;-2.566;2023-06-22T13:29:50;2.73;;;2.07;;
10491;SDS011;5293;51.464;-2.566;2023-06-22T13:32:16;3.87;;;2.30;;
10491;SDS011;5293;51.464;-2.566;2023-06-22T13:34:42;3.40;;;2.30;;
10491;SDS011;5293;51.464;-2.566;2023-06-22T13:37:08;5.60;;;2.80;;
10491;SDS011;5293;51.464;-2.566;2023-06-22T13:39:34;5.43;;;3.50;;
10491;SDS011;5293;51.464;-2.566;2023-06-22T13:41:59;3.67;;;3.37;;
10491;SDS011;5293;51.464;-2.566;2023-06-22T13:44:25;4.07;;;2.83;;
10491;SDS011;5293;51.464;-2.566;2023-06-22T13:46:54;3.90;;;3.37;;
10491;SDS011;5293;51.464;-2.566;2023-06-22T13:49:20;5.10;;;4.17;;
10491;SDS011;5293;51.464;-2.566;2023-06-22T13:51:46;4.03;;;3.13;;
10491;SDS011;5293;51.464;-2.566;2023-06-22T13:54:13;6.20;;;2.70;;
10491;SDS011;5293;51.464;-2.566;2023-06-22T13:56:39;2.73;;;2.20;;
10491;SDS011;5293;51.464;-2.566;2023-06-22T13:59:04;2.97;;;2.30;;
10491;SDS011;5293;51.464;-2.566;2023-06-22T14:01:31;4.37;;;2.20;;
10491;SDS011;5293;51.464;-2.566;2023-06-22T14:03:57;3.37;;;2.23;;
10491;SDS011;5293;51.464;-2.566;2023-06-22T14:06:23;2.77;;;2.20;;
10491;SDS011;5293;51.464;-2.566;2023-06-22T14:08:48;4.73;;;2.27;;
10491;SDS011;5293;51.464;-2.566;2023-06-22T14:11:16;6.77;;;2.13;;
10491;SDS011;5293;51.464;-2.566;2023-06-22T14:13:41;2.70;;;2.50;;
10491;SDS011;5293;51.464;-2.566;2023-06-22T14:16:08;4.00;;;2.07;;
10491;SDS011;5293;51.464;-2.566;2023-06-22T14:18:33;5.37;;;1.80;;
10491;SDS011;5293;51.464;-2.566;2023-06-22T14:20:59;2.20;;;1.97;;
10491;SDS011;5293;51.464;-2.566;2023-06-22T14:23:25;1.90;;;1.80;;
10491;SDS011;5293;51.464;-2.566;2023-06-22T14:25:52;2.80;;;1.97;;
10491;SDS011;5293;51.464;-2.566;2023-06-22T14:28:17;3.00;;;1.73;;
10491;SDS011;5293;51.464;-2.566;2023-06-22T14:30:43;1.87;;;1.77;;
10491;SDS011;5293;51.464;-2.566;2023-06-22T14:33:09;3.37;;;2.37;;
10491;SDS011;5293;51.464;-2.566;2023-06-22T14:35:34;2.47;;;2.00;;
10491;SDS011;5293;51.464;-2.566;2023-06-22T14:38:00;1.90;;;1.80;;
10491;SDS011;5293;51.464;-2.566;2023-06-22T14:40:26;2.07;;;1.37;;
10491;SDS011;5293;51.464;-2.566;2023-06-22T14:42:51;1.97;;;1.60;;
10491;SDS011;5293;51.464;-2.566;2023-06-22T14:45:17;4.03;;;1.60;;